MV Sea Wolf — WCW6738 — position and weather

sailwx.info

Track history (hours):
 
Tides and Currents Weather Stations Pressure Air Temp Water Temp Dewpoint Dewpoint Depression Visibility Wind Speed Wind Dir Waves Ship Positions

MV Sea Wolf

Owner: SEA WOLF MARINE TOWING & TRANSPORTATION, Bayonne, NJ. More information available from US FCC via Universal Licensing System and Coast Guard Vessel Documentation Center.

Last reported at 2015-Apr-02 09:33 UTC. Time now 2015-Apr-02 09:40 UTC.
Position N 38°57' W 074°54'.

Length 66 m; draft 10 m.

MMSI: 367002350.

Date/timePositionNaut miles runAvg speedWind from/ knotsBaromVisibWave heightAir tempDewpointWater temp
2015-Apr-02 09:33N 38°57' W 074°54'0 0.0
2015-Apr-02 08:33N 38°57' W 074°54'0 0.0
2015-Apr-02 07:33N 38°57' W 074°54'0 0.0
2015-Apr-02 06:33N 38°57' W 074°54'0 0.0
2015-Apr-02 05:33N 38°57' W 074°54'0 0.0
2015-Apr-02 04:33N 38°57' W 074°54'0 0.0
2015-Apr-02 03:33N 38°57' W 074°54'0 0.0
2015-Apr-02 02:33N 38°57' W 074°54'0 0.0
2015-Apr-02 01:33N 38°57' W 074°54'0 0.0
2015-Apr-02 00:33N 38°57' W 074°54'0 0.0
2015-Apr-01 23:33N 38°57' W 074°54'1 0.1
2015-Apr-01 11:33N 38°57' W 074°53'1 0.6
2015-Apr-01 10:32N 38°57' W 074°52'2 1.6
2015-Apr-01 09:32N 38°57' W 074°54'0 0.0
2015-Apr-01 08:32N 38°57' W 074°54'0 0.0
2015-Apr-01 07:33N 38°57' W 074°54'0 0.0
2015-Apr-01 06:33N 38°57' W 074°54'0 0.0
2015-Apr-01 05:33N 38°57' W 074°54'0 0.0
2015-Apr-01 04:33N 38°57' W 074°54'0 0.0
2015-Apr-01 03:32N 38°57' W 074°54'0 0.0
2015-Apr-01 02:33N 38°57' W 074°54'0 0.0
2015-Apr-01 01:33N 38°57' W 074°54'0 0.0
2015-Apr-01 00:30N 38°57' W 074°54'0 0.0
2015-Mar-31 23:33N 38°57' W 074°54'0 0.0
2015-Mar-31 22:33N 38°57' W 074°54'0 0.0
2015-Mar-31 21:33N 38°57' W 074°54'0 0.0
2015-Mar-31 20:33N 38°57' W 074°54'1 1.1
2015-Mar-31 19:33N 38°57' W 074°53'0 0.1
2015-Mar-31 18:33N 38°57' W 074°53'0 0.1
2015-Mar-31 17:33N 38°57' W 074°53'0 0.0
2015-Mar-31 16:24N 38°57' W 074°53'0 0.0
2015-Mar-31 15:32N 38°57' W 074°53'0 0.0
2015-Mar-31 14:33N 38°57' W 074°53'0 0.0
2015-Mar-31 13:33N 38°57' W 074°53'0 0.0
2015-Mar-31 12:33N 38°57' W 074°53'0 0.0
2015-Mar-31 11:30N 38°57' W 074°53'2 1.6
2015-Mar-31 10:28N 38°56' W 074°51'3 2.0
2015-Mar-31 09:13N 38°57' W 074°54'0 0.0
2015-Mar-31 08:33N 38°57' W 074°54'0 0.0
2015-Mar-31 07:33N 38°57' W 074°54'0 0.0
2015-Mar-31 06:33N 38°57' W 074°54'0 0.0
2015-Mar-31 05:33N 38°57' W 074°54'0 0.0
2015-Mar-31 04:33N 38°57' W 074°54'0 0.0
2015-Mar-31 02:21N 38°57' W 074°54'0 0.0
2015-Mar-31 01:24N 38°57' W 074°54'0 0.0
2015-Mar-31 00:14N 38°57' W 074°54'0 0.0
2015-Mar-30 21:33N 38°57' W 074°54'1 1.2
2015-Mar-30 20:33N 38°57' W 074°53'0 0.1
2015-Mar-30 19:33N 38°57' W 074°52'0 0.3
2015-Mar-30 18:33N 38°57' W 074°52'0 0.5
2015-Mar-30 17:31N 38°57' W 074°53'0 0.3
2015-Mar-30 16:32N 38°57' W 074°52'0 0.1
2015-Mar-30 15:22N 38°57' W 074°52'0 0.0
2015-Mar-30 14:33N 38°57' W 074°52'1 0.8
2015-Mar-30 13:28N 38°57' W 074°54'1 1.0
2015-Mar-30 12:33N 38°57' W 074°52'1 0.9
2015-Mar-30 11:12N 38°57' W 074°54'2 2.4
2015-Mar-30 10:30N 38°56' W 074°52'2 1.8
2015-Mar-30 09:27N 38°57' W 074°54'1 0.1
2015-Mar-29 20:23N 38°57' W 074°52'0 0.1
2015-Mar-29 19:30N 38°57' W 074°52'0 0.1
2015-Mar-29 18:33N 38°57' W 074°52'0 0.3
2015-Mar-29 17:27N 38°57' W 074°52'1 0.1
2015-Mar-28 21:09N 38°57' W 074°54'2 0.2
2015-Mar-28 11:12N 38°56' W 074°52'2 1.5
2015-Mar-28 10:06N 38°57' W 074°54'1 0.1
2015-Mar-27 20:33N 38°57' W 074°53'0 0.0
2015-Mar-27 19:33N 38°57' W 074°53'0 0.4
2015-Mar-27 18:33N 38°57' W 074°53'0 0.4
2015-Mar-27 17:33N 38°57' W 074°53'0 0.0
2015-Mar-27 16:30N 38°57' W 074°53'1 1.1
2015-Mar-27 15:28N 38°57' W 074°54'0 0.0
2015-Mar-27 14:33N 38°57' W 074°54'1 1.0
2015-Mar-27 13:33N 38°57' W 074°53'1 1.0
2015-Mar-27 12:33N 38°57' W 074°54'0 0.0
2015-Mar-27 11:30N 38°57' W 074°54'0 0.0
2015-Mar-27 10:25N 38°57' W 074°54'0 0.0
2015-Mar-27 09:32N 38°57' W 074°54'0 0.0
2015-Mar-27 08:25N 38°57' W 074°54'0 0.0
2015-Mar-27 07:33N 38°57' W 074°54'0 0.0
2015-Mar-27 06:24N 38°57' W 074°54'0 0.0
2015-Mar-27 05:33N 38°57' W 074°54'0 0.0
2015-Mar-27 04:33N 38°57' W 074°54'0 0.0
2015-Mar-27 03:16N 38°57' W 074°54'0 0.0
2015-Mar-27 02:32N 38°57' W 074°54'0 0.0
2015-Mar-27 01:28N 38°57' W 074°54'0 0.0
2015-Mar-26 23:32N 38°57' W 074°54'0 0.0
2015-Mar-26 22:24N 38°57' W 074°54'0 0.0
2015-Mar-26 21:32N 38°57' W 074°54'0 0.0
2015-Mar-26 20:32N 38°57' W 074°54'0 0.0
2015-Mar-26 19:33N 38°57' W 074°54'0 0.0
2015-Mar-26 18:28N 38°57' W 074°54'0 0.0
2015-Mar-26 17:31N 38°57' W 074°54'1 1.0
2015-Mar-26 16:18N 38°57' W 074°53'0 0.1
2015-Mar-26 15:31N 38°57' W 074°53'0 0.1
2015-Mar-26 14:33N 38°57' W 074°53'0 0.1
2015-Mar-26 13:33N 38°57' W 074°53'1 0.8
2015-Mar-26 12:10N 38°57' W 074°54'0 0.0
2015-Mar-25 22:25N 38°57' W 074°54'22 3.5
2015-Mar-25 16:13N 39°14' W 074°37'22 0.6
2015-Mar-24 04:33N 38°57' W 074°54'0 0.0
2015-Mar-24 03:32N 38°57' W 074°54'0 0.0
2015-Mar-24 02:32N 38°57' W 074°54'0 0.0
2015-Mar-24 01:33N 38°57' W 074°54'0 0.0
2015-Mar-24 00:27N 38°57' W 074°54'1 0.7
2015-Mar-23 23:33N 38°57' W 074°53'1 0.1
2015-Mar-23 10:31N 38°57' W 074°52'  
Track history (hours):
 
Tides and Currents Weather Stations Pressure Air Temp Water Temp Dewpoint Dewpoint Depression Visibility Wind Speed Wind Dir Waves Ship Positions

MV Sea Wolf

Owner: SEA WOLF MARINE TOWING & TRANSPORTATION, Bayonne, NJ. More information available from US FCC via Universal Licensing System and Coast Guard Vessel Documentation Center.

Last reported at 2015-Apr-02 09:33 UTC. Time now 2015-Apr-02 09:40 UTC.
Position N 38°57' W 074°54'.

Length 66 m; draft 10 m.

MMSI: 367002350.

Date/timePositionNaut miles runAvg speedWind from/ knotsBaromVisibWave heightAir tempDewpointWater temp
2015-Apr-02 09:33N 38°57' W 074°54'0 0.0
2015-Apr-02 08:33N 38°57' W 074°54'0 0.0
2015-Apr-02 07:33N 38°57' W 074°54'0 0.0
2015-Apr-02 06:33N 38°57' W 074°54'0 0.0
2015-Apr-02 05:33N 38°57' W 074°54'0 0.0
2015-Apr-02 04:33N 38°57' W 074°54'0 0.0
2015-Apr-02 03:33N 38°57' W 074°54'0 0.0
2015-Apr-02 02:33N 38°57' W 074°54'0 0.0
2015-Apr-02 01:33N 38°57' W 074°54'0 0.0
2015-Apr-02 00:33N 38°57' W 074°54'0 0.0
2015-Apr-01 23:33N 38°57' W 074°54'1 0.1
2015-Apr-01 11:33N 38°57' W 074°53'1 0.6
2015-Apr-01 10:32N 38°57' W 074°52'2 1.6
2015-Apr-01 09:32N 38°57' W 074°54'0 0.0
2015-Apr-01 08:32N 38°57' W 074°54'0 0.0
2015-Apr-01 07:33N 38°57' W 074°54'0 0.0
2015-Apr-01 06:33N 38°57' W 074°54'0 0.0
2015-Apr-01 05:33N 38°57' W 074°54'0 0.0
2015-Apr-01 04:33N 38°57' W 074°54'0 0.0
2015-Apr-01 03:32N 38°57' W 074°54'0 0.0
2015-Apr-01 02:33N 38°57' W 074°54'0 0.0
2015-Apr-01 01:33N 38°57' W 074°54'0 0.0
2015-Apr-01 00:30N 38°57' W 074°54'0 0.0
2015-Mar-31 23:33N 38°57' W 074°54'0 0.0
2015-Mar-31 22:33N 38°57' W 074°54'0 0.0
2015-Mar-31 21:33N 38°57' W 074°54'0 0.0
2015-Mar-31 20:33N 38°57' W 074°54'1 1.1
2015-Mar-31 19:33N 38°57' W 074°53'0 0.1
2015-Mar-31 18:33N 38°57' W 074°53'0 0.1
2015-Mar-31 17:33N 38°57' W 074°53'0 0.0
2015-Mar-31 16:24N 38°57' W 074°53'0 0.0
2015-Mar-31 15:32N 38°57' W 074°53'0 0.0
2015-Mar-31 14:33N 38°57' W 074°53'0 0.0
2015-Mar-31 13:33N 38°57' W 074°53'0 0.0
2015-Mar-31 12:33N 38°57' W 074°53'0 0.0
2015-Mar-31 11:30N 38°57' W 074°53'2 1.6
2015-Mar-31 10:28N 38°56' W 074°51'3 2.0
2015-Mar-31 09:13N 38°57' W 074°54'0 0.0
2015-Mar-31 08:33N 38°57' W 074°54'0 0.0
2015-Mar-31 07:33N 38°57' W 074°54'0 0.0
2015-Mar-31 06:33N 38°57' W 074°54'0 0.0
2015-Mar-31 05:33N 38°57' W 074°54'0 0.0
2015-Mar-31 04:33N 38°57' W 074°54'0 0.0
2015-Mar-31 02:21N 38°57' W 074°54'0 0.0
2015-Mar-31 01:24N 38°57' W 074°54'0 0.0
2015-Mar-31 00:14N 38°57' W 074°54'0 0.0
2015-Mar-30 21:33N 38°57' W 074°54'1 1.2
2015-Mar-30 20:33N 38°57' W 074°53'0 0.1
2015-Mar-30 19:33N 38°57' W 074°52'0 0.3
2015-Mar-30 18:33N 38°57' W 074°52'0 0.5
2015-Mar-30 17:31N 38°57' W 074°53'0 0.3
2015-Mar-30 16:32N 38°57' W 074°52'0 0.1
2015-Mar-30 15:22N 38°57' W 074°52'0 0.0
2015-Mar-30 14:33N 38°57' W 074°52'1 0.8
2015-Mar-30 13:28N 38°57' W 074°54'1 1.0
2015-Mar-30 12:33N 38°57' W 074°52'1 0.9
2015-Mar-30 11:12N 38°57' W 074°54'2 2.4
2015-Mar-30 10:30N 38°56' W 074°52'2 1.8
2015-Mar-30 09:27N 38°57' W 074°54'1 0.1
2015-Mar-29 20:23N 38°57' W 074°52'0 0.1
2015-Mar-29 19:30N 38°57' W 074°52'0 0.1
2015-Mar-29 18:33N 38°57' W 074°52'0 0.3
2015-Mar-29 17:27N 38°57' W 074°52'1 0.1
2015-Mar-28 21:09N 38°57' W 074°54'2 0.2
2015-Mar-28 11:12N 38°56' W 074°52'2 1.5
2015-Mar-28 10:06N 38°57' W 074°54'1 0.1
2015-Mar-27 20:33N 38°57' W 074°53'0 0.0
2015-Mar-27 19:33N 38°57' W 074°53'0 0.4
2015-Mar-27 18:33N 38°57' W 074°53'0 0.4
2015-Mar-27 17:33N 38°57' W 074°53'0 0.0
2015-Mar-27 16:30N 38°57' W 074°53'1 1.1
2015-Mar-27 15:28N 38°57' W 074°54'0 0.0
2015-Mar-27 14:33N 38°57' W 074°54'1 1.0
2015-Mar-27 13:33N 38°57' W 074°53'1 1.0
2015-Mar-27 12:33N 38°57' W 074°54'0 0.0
2015-Mar-27 11:30N 38°57' W 074°54'0 0.0
2015-Mar-27 10:25N 38°57' W 074°54'0 0.0
2015-Mar-27 09:32N 38°57' W 074°54'0 0.0
2015-Mar-27 08:25N 38°57' W 074°54'0 0.0
2015-Mar-27 07:33N 38°57' W 074°54'0 0.0
2015-Mar-27 06:24N 38°57' W 074°54'0 0.0
2015-Mar-27 05:33N 38°57' W 074°54'0 0.0
2015-Mar-27 04:33N 38°57' W 074°54'0 0.0
2015-Mar-27 03:16N 38°57' W 074°54'0 0.0
2015-Mar-27 02:32N 38°57' W 074°54'0 0.0
2015-Mar-27 01:28N 38°57' W 074°54'0 0.0
2015-Mar-26 23:32N 38°57' W 074°54'0 0.0
2015-Mar-26 22:24N 38°57' W 074°54'0 0.0
2015-Mar-26 21:32N 38°57' W 074°54'0 0.0
2015-Mar-26 20:32N 38°57' W 074°54'0 0.0
2015-Mar-26 19:33N 38°57' W 074°54'0 0.0
2015-Mar-26 18:28N 38°57' W 074°54'0 0.0
2015-Mar-26 17:31N 38°57' W 074°54'1 1.0
2015-Mar-26 16:18N 38°57' W 074°53'0 0.1
2015-Mar-26 15:31N 38°57' W 074°53'0 0.1
2015-Mar-26 14:33N 38°57' W 074°53'0 0.1
2015-Mar-26 13:33N 38°57' W 074°53'1 0.8
2015-Mar-26 12:10N 38°57' W 074°54'0 0.0
2015-Mar-25 22:25N 38°57' W 074°54'22 3.5
2015-Mar-25 16:13N 39°14' W 074°37'22 0.6
2015-Mar-24 04:33N 38°57' W 074°54'0 0.0
2015-Mar-24 03:32N 38°57' W 074°54'0 0.0
2015-Mar-24 02:32N 38°57' W 074°54'0 0.0
2015-Mar-24 01:33N 38°57' W 074°54'0 0.0
2015-Mar-24 00:27N 38°57' W 074°54'1 0.7
2015-Mar-23 23:33N 38°57' W 074°53'1 0.1
2015-Mar-23 10:31N 38°57' W 074°52'  

Dump ship's entire track history